Parishville Center, New York
Current Conditions -  °F | °C
As of 4:53 AM on Sunday 23 Nov 2014 (Local Time) from KMSS Reporting Station
Haze Haze  
Wind Chill: 37°   Ceiling: 400
Heat Index: 41°   Visibility: 4mi
Dew Point: 41°   Wind: 6mph
Humidity: 100%   Direction: 240°WSW
Pressure: 29.98"   Gusts: NA
Location:  44.6469°N, 74.9157°W
Report Text: KMSS 230953Z AUTO 24005KT 4SM BR OVC004 05/05 A2998 RMK AO2 SLP157 T00500050
Loading
Personal Weather Stations






























Interactive Weather Map New forecast layout! Learn more

10-Day Weather Forecast

Advertisements
Track Severe Weather on mobile